SASJ/JUJ METAR and TAF weather

Enter ICAO airport designator
Station Type Date Time Source
SASJ METAR 2020/12/06 00:00 UTC NOAA

SASJ 060000Z 14005KT 9999 VCSH SCT008 OVC040 16/12 Q1025


Station Type Date Time Source
SASJ Decoded METAR 2020/12/06 00:00 UTC NOAA

Jujuy Aerodrome, Argentina (SASJ) 24-23S 065-05W 905M
Dec 05, 2020 - 07:00 PM EST / 2020.12.06 0000 UTC
Wind: from the SE (140 degrees) at 6 MPH (5 KT):0
Visibility: greater than 7 mile(s):0
Sky conditions: overcast
Weather: showers in the vicinity
Temperature: 60 F (16 C)
Dew Point: 53 F (12 C)
Relative Humidity: 77%
Pressure (altimeter): 30.27 in. Hg (1025 hPa)
ob: SASJ 060000Z 14005KT 9999 VCSH SCT008 OVC040 16/12 Q1025
cycle: 0

Station Type Date Time Source
SASJ TAF 2020/12/06 00:00 UTC NOAA

TAF SASJ 052300Z 0600/0624 18010KT 3000 DZ SCT025 TX24/0618Z TN12/0610Z
BECMG 0604/0606 27005KT 1000 BCFG BKN005
BECMG 0613/0615 07010KT 9999 NSW SCT020

Example: see airport list